Ashkum, Illinois
Current Conditions -  °F | °C
As of 4:15 PM on Wednesday 28 Jan 2015 (Local Time) from KIKK Reporting Station
Clear Clear  
Wind Chill: -4°   Ceiling: Unl
Heat Index:   Visibility: 10mi
Dew Point: -4°   Wind: 14mph
Humidity: 72%   Direction: 130°SE
Pressure: 30.08"   Gusts: 20mph
Location:  40.88°N, 87.96°W
Report Text: KIKK 282215Z AUTO 13012G17KT 10SM CLR 01/M03 A3008 RMK AO2 T00101035
Loading
Personal Weather Stations






























Interactive Weather Map New forecast layout! Learn more

10-Day Weather Forecast

Advertisements
Track Severe Weather on mobile